createdAt,value
2018-05-26T00:00:05.576Z,17.37
2018-05-26T00:02:35.680Z,18.63
2018-05-26T00:05:05.813Z,19.57
2018-05-26T00:07:35.861Z,18.20
2018-05-26T00:10:06.974Z,20.27
2018-05-26T00:12:38.026Z,19.27
2018-05-26T00:15:08.533Z,22.13
2018-05-26T00:17:38.608Z,21.97
2018-05-26T00:20:08.638Z,21.87
2018-05-26T00:22:42.925Z,26.33
2018-05-26T00:25:13.316Z,26.83
2018-05-26T00:27:44.475Z,28.17
2018-05-26T00:30:15.891Z,31.40
2018-05-26T00:32:46.838Z,30.93
2018-05-26T00:35:17.143Z,34.23
2018-05-26T00:37:47.248Z,33.97
2018-05-26T00:40:17.424Z,36.37
2018-05-26T00:42:47.438Z,36.77
2018-05-26T00:45:17.831Z,37.93
2018-05-26T00:47:47.884Z,39.40
2018-05-26T00:50:18.717Z,41.73
2018-05-26T00:52:49.286Z,43.00
2018-05-26T00:55:19.753Z,44.07
2018-05-26T00:57:49.908Z,38.60
2018-05-26T01:00:20.160Z,41.77
2018-05-26T01:02:50.366Z,50.07
2018-05-26T01:05:20.895Z,42.70
2018-05-26T01:07:51.964Z,48.80
2018-05-26T01:10:22.295Z,49.23
2018-05-26T01:12:52.370Z,46.73
2018-05-26T01:15:22.674Z,50.87
2018-05-26T01:17:52.954Z,44.23
2018-05-26T01:20:23.169Z,42.47
2018-05-26T01:22:53.516Z,46.10
2018-05-26T01:25:23.772Z,49.30
2018-05-26T01:27:53.803Z,51.67
2018-05-26T01:32:58.816Z,54.37
2018-05-26T01:35:28.860Z,56.17
2018-05-26T01:38:00.339Z,57.17
2018-05-26T01:40:30.349Z,52.23
2018-05-26T01:43:00.378Z,52.83
2018-05-26T01:45:30.402Z,55.27
2018-05-26T01:48:00.709Z,67.63
2018-05-26T01:50:30.811Z,57.93
2018-05-26T01:53:01.161Z,70.73
2018-05-26T01:55:31.222Z,69.90
2018-05-26T01:58:01.257Z,72.10
2018-05-26T02:00:31.553Z,75.07
2018-05-26T02:03:02.310Z,74.07
2018-05-26T02:05:32.742Z,71.97
2018-05-26T02:08:03.284Z,68.07
2018-05-26T02:10:33.953Z,71.70
2018-05-26T02:13:04.318Z,68.57
2018-05-26T02:15:34.392Z,73.67
2018-05-26T02:18:04.758Z,67.07
2018-05-26T02:20:34.782Z,75.60
2018-05-26T02:23:05.122Z,73.77
2018-05-26T02:25:35.380Z,77.77
2018-05-26T02:28:06.250Z,78.17
2018-05-26T02:30:37.006Z,74.70
2018-05-26T02:33:07.345Z,73.70
2018-05-26T02:35:37.416Z,75.17
2018-05-26T02:38:08.237Z,71.83
2018-05-26T02:40:38.488Z,68.53
2018-05-26T02:43:08.501Z,71.00
2018-05-26T02:45:38.808Z,69.93
2018-05-26T02:48:08.829Z,65.03
2018-05-26T02:50:39.924Z,64.47
2018-05-26T02:53:09.976Z,61.90
2018-05-26T02:55:39.972Z,60.33
2018-05-26T02:58:10.470Z,57.07
2018-05-26T03:00:40.505Z,56.70
2018-05-26T03:03:10.688Z,59.60
2018-05-26T03:05:46.294Z,56.80
2018-05-26T03:08:21.407Z,58.80
2018-05-26T03:10:56.911Z,56.23
2018-05-26T03:13:32.827Z,56.90
2018-05-26T03:16:03.217Z,66.23
2018-05-26T03:18:33.488Z,61.97
2018-05-26T03:21:04.532Z,58.77
2018-05-26T03:23:35.426Z,67.97
2018-05-26T03:26:05.754Z,64.23
2018-05-26T03:28:36.618Z,71.43
2018-05-26T03:31:06.658Z,69.47
2018-05-26T03:33:37.459Z,69.50
2018-05-26T03:36:07.860Z,65.87
2018-05-26T03:38:37.942Z,66.93
2018-05-26T03:41:08.010Z,70.33
2018-05-26T03:43:39.117Z,65.70
2018-05-26T03:46:09.133Z,73.30
2018-05-26T03:48:39.284Z,66.67
2018-05-26T03:51:09.556Z,66.23
2018-05-26T03:53:40.386Z,62.67
2018-05-26T03:58:24.223Z,61.30
2018-05-26T04:00:54.204Z,60.33
2018-05-26T04:03:24.574Z,59.30
2018-05-26T04:05:55.624Z,59.67
2018-05-26T04:08:25.597Z,56.87
2018-05-26T04:10:55.605Z,56.13
2018-05-26T04:13:25.876Z,53.60
2018-05-26T04:15:56.684Z,53.90
2018-05-26T04:18:26.702Z,49.50
2018-05-26T04:20:56.990Z,47.97
2018-05-26T04:23:27.100Z,47.00
2018-05-26T04:25:57.121Z,41.77
2018-05-26T04:28:27.468Z,39.03
2018-05-26T04:30:57.787Z,38.70
2018-05-26T04:33:27.792Z,36.37
2018-05-26T04:35:58.082Z,34.13
2018-05-26T04:38:28.402Z,31.23
2018-05-26T04:40:59.216Z,30.23
2018-05-26T04:43:30.039Z,26.90
2018-05-26T04:46:00.322Z,24.20
2018-05-26T04:48:30.417Z,22.47
2018-05-26T04:51:00.687Z,21.17
2018-05-26T04:53:31.021Z,21.00
2018-05-26T04:56:01.089Z,19.10
2018-05-26T04:58:31.927Z,18.23
2018-05-26T05:01:02.405Z,16.90
2018-05-26T05:03:33.669Z,14.73
2018-05-26T05:06:04.332Z,14.67
2018-05-26T05:08:34.398Z,13.60
2018-05-26T05:11:05.797Z,13.13
2018-05-26T05:13:36.106Z,12.30
2018-05-26T05:16:06.893Z,11.03
2018-05-26T05:18:36.948Z,11.17
2018-05-26T05:21:08.076Z,12.30
2018-05-26T05:23:38.137Z,11.23
2018-05-26T05:26:08.141Z,10.60
2018-05-26T05:28:38.929Z,10.53
2018-05-26T05:31:09.494Z,10.20
2018-05-26T05:33:40.559Z,10.17
2018-05-26T05:36:10.598Z,10.23
2018-05-26T05:38:40.640Z,10.07
2018-05-26T05:41:10.947Z,10.57
2018-05-26T05:43:41.295Z,11.10
2018-05-26T05:46:12.711Z,10.43
2018-05-26T05:48:42.986Z,9.30
2018-05-26T05:51:14.073Z,9.93
2018-05-26T05:53:45.503Z,8.73
2018-05-26T05:56:15.564Z,8.73
2018-05-26T05:58:46.532Z,9.30
2018-05-26T06:01:16.641Z,8.00
2018-05-26T06:03:47.440Z,9.00
2018-05-26T06:06:18.221Z,8.50
2018-05-26T06:08:48.286Z,8.90
2018-05-26T06:11:24.706Z,8.10
2018-05-26T06:13:55.416Z,8.37
2018-05-26T06:16:25.438Z,7.83
2018-05-26T06:18:55.493Z,9.03
2018-05-26T06:21:26.063Z,7.80
2018-05-26T06:23:58.234Z,7.60
2018-05-26T06:26:29.126Z,7.67
2018-05-26T06:29:01.804Z,7.43
2018-05-26T06:31:31.915Z,7.30
2018-05-26T06:34:07.614Z,7.30
2018-05-26T06:36:39.322Z,6.57
2018-05-26T06:39:31.941Z,6.40
2018-05-26T06:42:03.226Z,6.70
2018-05-26T06:44:33.321Z,6.20
2018-05-26T06:47:04.361Z,6.33
2018-05-26T06:49:35.646Z,6.27
2018-05-26T06:52:05.685Z,5.83
2018-05-26T06:54:35.857Z,5.40
2018-05-26T06:57:06.896Z,5.97
2018-05-26T06:59:37.817Z,5.60
2018-05-26T07:02:09.429Z,5.13
2018-05-26T07:04:39.588Z,5.57
2018-05-26T07:07:12.001Z,4.87
2018-05-26T07:09:42.086Z,5.30
2018-05-26T07:12:13.185Z,5.20
2018-05-26T07:14:43.205Z,4.93
2018-05-26T07:17:13.417Z,5.57
2018-05-26T07:19:44.214Z,6.13
2018-05-26T07:22:15.835Z,5.27
2018-05-26T07:24:47.130Z,5.03
2018-05-26T07:27:17.415Z,5.30
2018-05-26T07:29:48.217Z,4.67
2018-05-26T07:32:18.186Z,4.60
2018-05-26T07:34:48.318Z,5.00
2018-05-26T07:37:19.247Z,7.83
2018-05-26T07:39:50.883Z,5.17
2018-05-26T07:42:21.165Z,4.00
2018-05-26T07:44:51.205Z,4.60
2018-05-26T07:47:21.227Z,4.77
2018-05-26T07:49:52.540Z,4.33
2018-05-26T07:52:27.271Z,4.60
2018-05-26T07:55:00.980Z,4.17
2018-05-26T07:57:30.983Z,5.13
2018-05-26T08:00:01.329Z,4.37
2018-05-26T08:02:31.617Z,4.20
2018-05-26T08:05:01.602Z,4.00
2018-05-26T08:07:32.254Z,4.57
2018-05-26T08:10:02.272Z,4.60
2018-05-26T08:12:32.485Z,3.90
2018-05-26T08:15:02.833Z,4.10
2018-05-26T08:17:32.859Z,3.90
2018-05-26T08:20:03.144Z,3.90
2018-05-26T08:22:33.462Z,4.20
2018-05-26T08:25:04.271Z,4.50
2018-05-26T08:27:34.268Z,4.00
2018-05-26T08:30:04.605Z,4.10
2018-05-26T08:32:34.872Z,4.20
2018-05-26T08:35:05.654Z,4.03
2018-05-26T08:37:36.261Z,4.17
2018-05-26T08:40:06.315Z,4.00
2018-05-26T08:42:36.292Z,3.80
2018-05-26T08:45:06.592Z,4.60
2018-05-26T08:47:36.705Z,3.87
2018-05-26T08:50:07.828Z,4.10
2018-05-26T08:52:37.800Z,3.57
2018-05-26T08:55:07.843Z,4.40
2018-05-26T08:57:38.217Z,3.80
2018-05-26T09:00:08.277Z,3.80
2018-05-26T09:02:39.315Z,4.10
2018-05-26T09:05:10.635Z,4.00
2018-05-26T09:07:42.082Z,3.83
2018-05-26T09:10:15.891Z,4.07
2018-05-26T09:12:47.180Z,3.80
2018-05-26T09:15:17.225Z,3.73
2018-05-26T09:17:48.001Z,4.00
2018-05-26T09:20:19.308Z,3.80
2018-05-26T09:22:50.825Z,3.67
2018-05-26T09:25:21.547Z,3.33
2018-05-26T09:27:51.668Z,4.17
2018-05-26T09:30:22.159Z,4.87
2018-05-26T09:32:53.615Z,4.10
2018-05-26T09:35:25.301Z,3.90
2018-05-26T09:37:55.347Z,3.60
2018-05-26T09:40:25.750Z,3.73
2018-05-26T09:42:56.104Z,3.40
2018-05-26T09:45:26.143Z,3.93
2018-05-26T09:47:56.490Z,3.90
2018-05-26T09:50:26.838Z,3.77
2018-05-26T09:52:57.696Z,4.00
2018-05-26T09:55:27.977Z,3.40
2018-05-26T09:57:59.033Z,4.50
2018-05-26T10:00:30.157Z,4.60
2018-05-26T10:03:00.576Z,4.20
2018-05-26T10:05:30.613Z,3.60
2018-05-26T10:08:00.709Z,3.50
2018-05-26T10:10:31.064Z,3.70
2018-05-26T10:13:01.453Z,3.50
2018-05-26T10:15:32.286Z,3.20
2018-05-26T10:18:02.822Z,3.70
2018-05-26T10:20:33.263Z,3.60
2018-05-26T10:23:04.350Z,3.57
2018-05-26T10:25:34.744Z,3.43
2018-05-26T10:28:05.277Z,3.57
2018-05-26T10:30:35.396Z,3.53
2018-05-26T10:33:05.834Z,3.60
2018-05-26T10:35:35.886Z,3.60
2018-05-26T10:38:06.032Z,3.77
2018-05-26T10:40:36.541Z,3.33
2018-05-26T10:43:06.593Z,3.57
2018-05-26T10:45:41.089Z,3.90
2018-05-26T10:48:11.333Z,3.10
2018-05-26T10:50:42.470Z,3.30
2018-05-26T10:53:13.485Z,3.47
2018-05-26T10:55:43.884Z,3.50
2018-05-26T10:58:13.892Z,3.20
2018-05-26T11:00:43.979Z,3.70
2018-05-26T11:03:15.125Z,3.30
2018-05-26T11:05:46.090Z,3.20
2018-05-26T11:08:16.236Z,3.50
2018-05-26T11:10:46.499Z,3.60
2018-05-26T11:13:17.313Z,3.43
2018-05-26T11:15:48.037Z,3.37
2018-05-26T11:18:18.618Z,3.60
2018-05-26T11:20:48.802Z,4.37
2018-05-26T11:23:18.832Z,3.40
2018-05-26T11:25:48.881Z,3.30
2018-05-26T11:28:19.160Z,3.00
2018-05-26T11:30:49.226Z,2.90
2018-05-26T11:33:19.623Z,3.30
2018-05-26T11:35:50.677Z,3.03
2018-05-26T11:38:21.455Z,3.10
2018-05-26T11:40:51.621Z,3.00
2018-05-26T11:43:22.643Z,2.83
2018-05-26T11:45:53.495Z,2.60
2018-05-26T11:48:24.244Z,2.97
2018-05-26T11:50:55.748Z,3.30
2018-05-26T11:53:26.763Z,3.07
2018-05-26T11:55:57.136Z,2.90
2018-05-26T11:58:28.831Z,2.80
2018-05-26T12:00:58.932Z,2.70
2018-05-26T12:03:30.169Z,3.10
2018-05-26T12:06:00.274Z,2.87
2018-05-26T12:08:30.332Z,2.93
2018-05-26T12:11:00.625Z,2.90
2018-05-26T12:13:31.428Z,2.73
2018-05-26T12:16:01.465Z,2.90
2018-05-26T12:18:31.822Z,2.50
2018-05-26T12:21:02.992Z,3.33
2018-05-26T12:23:33.133Z,2.50
2018-05-26T12:26:04.357Z,2.40
2018-05-26T12:28:35.517Z,2.83
2018-05-26T12:31:05.829Z,3.00
2018-05-26T12:33:37.055Z,2.60
2018-05-26T12:36:07.220Z,2.40
2018-05-26T12:38:37.310Z,2.53
2018-05-26T12:41:07.707Z,2.80
2018-05-26T12:43:38.722Z,2.53
2018-05-26T12:46:09.077Z,2.13
2018-05-26T12:48:39.421Z,2.67
2018-05-26T12:51:09.417Z,2.40
2018-05-26T12:53:40.573Z,2.37
2018-05-26T12:56:10.870Z,2.40
2018-05-26T12:58:40.937Z,2.53
2018-05-26T13:01:10.998Z,2.23
2018-05-26T13:03:41.346Z,2.53
2018-05-26T13:06:12.219Z,2.57
2018-05-26T13:08:42.269Z,2.30
2018-05-26T13:11:12.532Z,2.37
2018-05-26T13:13:43.284Z,2.67
2018-05-26T13:16:13.627Z,2.30
2018-05-26T13:18:44.423Z,2.53
2018-05-26T13:21:15.308Z,2.70
2018-05-26T13:23:45.901Z,2.90
2018-05-26T13:26:15.930Z,2.83
2018-05-26T13:28:45.941Z,2.73
2018-05-26T13:31:16.291Z,2.83
2018-05-26T13:33:46.583Z,2.70
2018-05-26T13:36:16.610Z,3.10
2018-05-26T13:38:47.019Z,2.97
2018-05-26T13:41:17.869Z,2.80
2018-05-26T13:43:47.985Z,2.87
2018-05-26T13:46:19.323Z,2.80
2018-05-26T13:48:49.403Z,3.03
2018-05-26T13:51:20.327Z,3.00
2018-05-26T13:53:50.743Z,2.77
2018-05-26T13:56:20.953Z,2.50
2018-05-26T13:58:51.320Z,2.50
2018-05-26T14:01:22.566Z,2.47
2018-05-26T14:03:53.390Z,2.40
2018-05-26T14:06:24.441Z,2.23
2018-05-26T14:08:54.936Z,2.07
2018-05-26T14:11:25.318Z,2.30
2018-05-26T14:13:55.429Z,2.07
2018-05-26T14:16:25.752Z,2.20
2018-05-26T14:18:56.911Z,2.03
2018-05-26T14:21:27.215Z,2.30
2018-05-26T14:23:58.273Z,2.03
2018-05-26T14:26:28.312Z,1.97
2018-05-26T14:28:58.751Z,1.90
2018-05-26T14:31:29.570Z,2.00
2018-05-26T14:33:59.555Z,2.10
2018-05-26T14:36:29.622Z,1.80
2018-05-26T14:38:59.872Z,1.73
2018-05-26T14:41:30.121Z,1.90
2018-05-26T14:44:00.420Z,1.93
2018-05-26T14:46:31.605Z,1.63
2018-05-26T14:49:01.961Z,1.73
2018-05-26T14:51:32.073Z,1.93
2018-05-26T14:54:02.244Z,2.00
2018-05-26T14:56:32.636Z,2.00
2018-05-26T14:59:03.491Z,1.90
2018-05-26T15:01:33.796Z,1.87
2018-05-26T15:04:04.456Z,1.60
2018-05-26T15:06:35.481Z,1.70
2018-05-26T15:09:06.563Z,1.80
2018-05-26T15:11:36.555Z,1.87
2018-05-26T15:14:07.869Z,1.80
2018-05-26T15:16:37.986Z,1.80
2018-05-26T15:19:08.921Z,2.10
2018-05-26T15:21:39.267Z,2.17
2018-05-26T15:24:09.468Z,1.70
2018-05-26T15:26:39.592Z,2.03
2018-05-26T15:29:09.922Z,2.00
2018-05-26T15:31:40.398Z,2.10
2018-05-26T15:34:10.679Z,2.10
2018-05-26T15:36:41.334Z,1.90
2018-05-26T15:39:11.693Z,2.00
2018-05-26T15:41:41.939Z,2.30
2018-05-26T15:44:12.354Z,2.00
2018-05-26T15:46:42.514Z,2.07
2018-05-26T15:49:13.030Z,1.90
2018-05-26T15:51:43.621Z,1.90
2018-05-26T15:54:25.333Z,1.90
2018-05-26T15:56:55.461Z,1.97
2018-05-26T15:59:25.799Z,2.10
2018-05-26T16:01:56.234Z,1.90
2018-05-26T16:04:26.367Z,2.00
2018-05-26T16:06:57.835Z,1.80
2018-05-26T16:09:28.747Z,1.80
2018-05-26T16:11:58.982Z,2.10
2018-05-26T16:14:33.079Z,2.23
2018-05-26T16:17:03.759Z,2.00
2018-05-26T16:19:37.473Z,2.10
2018-05-26T16:22:08.143Z,2.27
2018-05-26T16:24:38.242Z,2.20
2018-05-26T16:27:09.855Z,2.33
2018-05-26T16:29:39.897Z,2.50
2018-05-26T16:32:10.538Z,2.23
2018-05-26T16:34:41.739Z,2.20
2018-05-26T16:37:13.255Z,2.53
2018-05-26T16:39:43.608Z,2.30
2018-05-26T16:42:14.483Z,2.13
2018-05-26T16:44:44.811Z,2.40
2018-05-26T16:47:15.233Z,2.30
2018-05-26T16:49:49.633Z,3.93
2018-05-26T16:52:20.426Z,2.30
2018-05-26T16:54:50.810Z,1.90
2018-05-26T16:57:21.080Z,1.93
2018-05-26T16:59:51.356Z,2.10
2018-05-26T17:02:29.653Z,2.83
2018-05-26T17:05:01.368Z,2.13
2018-05-26T17:07:32.143Z,2.23
2018-05-26T17:10:03.229Z,2.27
2018-05-26T17:12:33.349Z,2.00
2018-05-26T17:15:04.618Z,2.20
2018-05-26T17:17:35.045Z,2.30
2018-05-26T17:20:05.386Z,2.23
2018-05-26T17:22:35.777Z,2.60
2018-05-26T17:25:05.842Z,2.40
2018-05-26T17:27:36.030Z,2.50
2018-05-26T17:30:06.503Z,2.67
2018-05-26T17:32:36.585Z,2.47
2018-05-26T17:35:06.640Z,2.60
2018-05-26T17:37:38.028Z,2.50
2018-05-26T17:40:08.378Z,2.63
2018-05-26T17:42:38.677Z,2.70
2018-05-26T17:45:08.681Z,2.53
2018-05-26T17:47:39.014Z,2.30
2018-05-26T17:50:09.318Z,2.97
2018-05-26T17:52:39.452Z,2.70
2018-05-26T17:55:09.575Z,2.70
2018-05-26T17:57:39.841Z,2.50
2018-05-26T18:00:09.953Z,2.50
2018-05-26T18:02:40.040Z,2.40
2018-05-26T18:05:10.493Z,2.50
2018-05-26T18:07:41.509Z,2.53
2018-05-26T18:10:11.805Z,2.53
2018-05-26T18:12:42.349Z,2.40
2018-05-26T18:15:12.462Z,2.70
2018-05-26T18:17:42.780Z,2.60
2018-05-26T18:20:13.169Z,2.63
2018-05-26T18:22:44.251Z,2.60
2018-05-26T18:25:14.360Z,4.30
2018-05-26T18:27:44.719Z,2.60
2018-05-26T18:30:14.738Z,2.70
2018-05-26T18:32:44.932Z,2.40
2018-05-26T18:35:15.355Z,2.90
2018-05-26T18:37:45.831Z,2.87
2018-05-26T18:40:16.752Z,2.80
2018-05-26T18:42:47.142Z,2.67
2018-05-26T18:45:17.252Z,2.70
2018-05-26T18:47:49.326Z,2.87
2018-05-26T18:50:20.187Z,2.80
2018-05-26T18:52:51.100Z,2.80
2018-05-26T18:55:21.452Z,2.60
2018-05-26T18:57:51.782Z,2.90
2018-05-26T19:00:21.930Z,3.10
2018-05-26T19:02:52.296Z,2.60
2018-05-26T19:05:22.754Z,3.10
2018-05-26T19:07:52.927Z,3.17
2018-05-26T19:10:24.615Z,2.90
2018-05-26T19:12:56.068Z,3.00
2018-05-26T19:15:26.703Z,2.70
2018-05-26T19:17:57.049Z,2.80
2018-05-26T19:20:28.034Z,3.17
2018-05-26T19:22:58.424Z,5.80
2018-05-26T19:25:28.751Z,3.60
2018-05-26T19:27:58.846Z,3.00
2018-05-26T19:30:28.996Z,3.20
2018-05-26T19:32:59.221Z,2.70
2018-05-26T19:35:29.593Z,3.50
2018-05-26T19:38:00.630Z,3.10
2018-05-26T19:40:43.900Z,3.00
2018-05-26T19:43:15.140Z,3.57
2018-05-26T19:45:45.719Z,3.50
2018-05-26T19:48:16.157Z,3.60
2018-05-26T19:50:47.935Z,3.27
2018-05-26T19:53:18.476Z,3.30
2018-05-26T19:55:48.700Z,3.20
2018-05-26T19:58:18.898Z,3.57
2018-05-26T20:00:50.903Z,3.20
2018-05-26T20:03:22.539Z,3.40
2018-05-26T20:05:53.090Z,3.23
2018-05-26T20:08:23.635Z,3.07
2018-05-26T20:10:54.379Z,3.10
2018-05-26T20:13:27.328Z,3.10
2018-05-26T20:15:58.851Z,3.20
2018-05-26T20:18:29.358Z,3.10
2018-05-26T20:21:00.028Z,3.37
2018-05-26T20:23:32.199Z,3.30
2018-05-26T20:26:02.852Z,3.30
2018-05-26T20:28:33.403Z,3.57
2018-05-26T20:31:04.431Z,3.40
2018-05-26T20:33:34.740Z,3.37
2018-05-26T20:36:07.098Z,3.10
2018-05-26T20:38:37.854Z,3.33
2018-05-26T20:41:08.303Z,3.20
2018-05-26T20:43:39.364Z,3.10
2018-05-26T20:46:09.606Z,3.00
2018-05-26T20:48:40.021Z,3.13
2018-05-26T20:51:10.326Z,3.07
2018-05-26T20:53:40.467Z,3.20
2018-05-26T20:56:11.744Z,3.10
2018-05-26T20:58:41.997Z,3.40
2018-05-26T21:01:13.121Z,3.80
2018-05-26T21:03:44.489Z,3.37
2018-05-26T21:06:14.754Z,3.33
2018-05-26T21:08:44.857Z,3.30
2018-05-26T21:11:15.656Z,3.47
2018-05-26T21:13:46.648Z,3.20
2018-05-26T21:16:17.615Z,3.33
2018-05-26T21:18:48.944Z,3.13
2018-05-26T21:21:19.249Z,3.90
2018-05-26T21:23:49.492Z,3.63
2018-05-26T21:26:19.804Z,3.50
2018-05-26T21:28:50.065Z,3.83
2018-05-26T21:31:21.255Z,3.83
2018-05-26T21:33:51.702Z,4.07
2018-05-26T21:36:22.047Z,3.80
2018-05-26T21:38:53.007Z,3.47
2018-05-26T21:41:24.144Z,3.90
2018-05-26T21:43:54.433Z,3.97
2018-05-26T21:46:24.498Z,3.63
2018-05-26T21:48:54.988Z,4.20
2018-05-26T21:51:25.477Z,3.90
2018-05-26T21:53:55.652Z,4.47
2018-05-26T21:56:26.763Z,4.40
2018-05-26T21:58:57.179Z,4.07
2018-05-26T22:01:27.264Z,4.17
2018-05-26T22:03:58.369Z,4.50
2018-05-26T22:06:29.026Z,4.77
2018-05-26T22:08:59.675Z,4.90
2018-05-26T22:11:30.735Z,4.60
2018-05-26T22:14:02.495Z,5.40
2018-05-26T22:16:33.286Z,4.30
2018-05-26T22:19:04.207Z,4.90
2018-05-26T22:21:35.254Z,5.43
2018-05-26T22:24:05.880Z,4.97
2018-05-26T22:26:37.654Z,4.53
2018-05-26T22:29:08.597Z,5.37
2018-05-26T22:31:39.109Z,5.00
2018-05-26T22:34:10.063Z,5.00
2018-05-26T22:36:41.092Z,5.47
2018-05-26T22:39:11.769Z,5.03
2018-05-26T22:41:42.573Z,5.10
2018-05-26T22:44:13.614Z,5.47
2018-05-26T22:46:44.268Z,4.80
2018-05-26T22:49:14.896Z,5.23
2018-05-26T22:51:46.031Z,5.70
2018-05-26T22:54:16.598Z,5.77
2018-05-26T22:56:47.395Z,5.00
2018-05-26T22:59:18.462Z,5.37
2018-05-26T23:01:49.640Z,5.33
2018-05-26T23:04:20.439Z,5.07
2018-05-26T23:06:51.810Z,6.30
2018-05-26T23:09:23.326Z,6.70
2018-05-26T23:11:54.159Z,6.13
2018-05-26T23:14:24.478Z,6.47
2018-05-26T23:16:54.640Z,6.63
2018-05-26T23:19:25.395Z,6.53
2018-05-26T23:21:55.868Z,6.97
2018-05-26T23:24:26.020Z,6.83
2018-05-26T23:26:57.522Z,6.67
2018-05-26T23:29:27.768Z,6.33
2018-05-26T23:31:58.018Z,6.50
2018-05-26T23:34:28.457Z,6.90
2018-05-26T23:36:58.492Z,6.63
2018-05-26T23:39:29.304Z,6.90
2018-05-26T23:41:59.629Z,7.33
2018-05-26T23:44:30.036Z,7.10
2018-05-26T23:47:00.362Z,7.27
2018-05-26T23:49:30.657Z,7.33
2018-05-26T23:52:01.926Z,7.43
2018-05-26T23:54:32.820Z,7.77
2018-05-26T23:57:04.275Z,7.40
2018-05-26T23:59:34.406Z,7.93
